Milford, Texas
Current Conditions -  °F | °C
As of 5:55 AM on Friday 19 Dec 2014 (Local Time) from KINJ Reporting Station
Thunderstorm Thunderstorm  
Wind Chill: 43°   Ceiling: 10000
Heat Index: 46°   Visibility: 5mi
Dew Point: 44°   Wind: 7mph
Humidity: 91%   Direction: 340°NNW
Pressure: 30.18"   Gusts: NA
Location:  32.12°N, 96.95°W
Report Text: KINJ 191155Z AUTO 34006KT 5SM VCTS BR SCT006 OVC100 08/07 A3018 RMK AO2 LTG DSNT SW 60001 70001 T00800066 10087 20080
Loading
Personal Weather Stations






























Interactive Weather Map New forecast layout! Learn more

10-Day Weather Forecast

Advertisements
Track Severe Weather on mobile